sensor_id;sensor_type;location;lat;lon;timestamp;P1;durP1;ratioP1;P2;durP2;ratioP2
58083;SDS011;43882;51.550;11.858;2023-01-28T00:01:08;14.52;;;3.83;;
58083;SDS011;43882;51.550;11.858;2023-01-28T00:03:36;13.73;;;3.50;;
58083;SDS011;43882;51.550;11.858;2023-01-28T00:06:06;17.33;;;3.33;;
58083;SDS011;43882;51.550;11.858;2023-01-28T00:08:37;14.85;;;3.22;;
58083;SDS011;43882;51.550;11.858;2023-01-28T00:11:04;11.88;;;2.92;;
58083;SDS011;43882;51.550;11.858;2023-01-28T00:13:31;13.57;;;3.40;;
58083;SDS011;43882;51.550;11.858;2023-01-28T00:15:59;15.50;;;3.40;;
58083;SDS011;43882;51.550;11.858;2023-01-28T00:18:26;13.32;;;3.55;;
58083;SDS011;43882;51.550;11.858;2023-01-28T00:21:00;12.27;;;3.00;;
58083;SDS011;43882;51.550;11.858;2023-01-28T00:23:31;13.80;;;3.38;;
58083;SDS011;43882;51.550;11.858;2023-01-28T00:26:00;15.55;;;3.47;;
58083;SDS011;43882;51.550;11.858;2023-01-28T00:28:27;12.35;;;3.15;;
58083;SDS011;43882;51.550;11.858;2023-01-28T00:30:53;18.00;;;3.92;;
58083;SDS011;43882;51.550;11.858;2023-01-28T00:33:19;15.23;;;3.08;;
58083;SDS011;43882;51.550;11.858;2023-01-28T00:35:46;13.95;;;3.22;;
58083;SDS011;43882;51.550;11.858;2023-01-28T00:38:12;17.08;;;3.80;;
58083;SDS011;43882;51.550;11.858;2023-01-28T00:40:39;15.80;;;3.63;;
58083;SDS011;43882;51.550;11.858;2023-01-28T00:43:05;17.73;;;3.58;;
58083;SDS011;43882;51.550;11.858;2023-01-28T00:45:31;14.35;;;3.65;;
58083;SDS011;43882;51.550;11.858;2023-01-28T00:47:57;13.65;;;3.33;;
58083;SDS011;43882;51.550;11.858;2023-01-28T00:50:23;14.30;;;3.33;;
58083;SDS011;43882;51.550;11.858;2023-01-28T00:52:49;13.95;;;3.42;;
58083;SDS011;43882;51.550;11.858;2023-01-28T00:55:15;12.70;;;3.42;;
58083;SDS011;43882;51.550;11.858;2023-01-28T00:57:41;12.70;;;2.95;;
58083;SDS011;43882;51.550;11.858;2023-01-28T01:00:07;15.23;;;3.72;;
58083;SDS011;43882;51.550;11.858;2023-01-28T01:02:34;12.85;;;3.15;;
58083;SDS011;43882;51.550;11.858;2023-01-28T01:05:00;13.57;;;3.03;;
58083;SDS011;43882;51.550;11.858;2023-01-28T01:07:27;15.00;;;3.25;;
58083;SDS011;43882;51.550;11.858;2023-01-28T01:10:05;13.65;;;3.22;;
58083;SDS011;43882;51.550;11.858;2023-01-28T01:12:33;12.48;;;3.20;;
58083;SDS011;43882;51.550;11.858;2023-01-28T01:14:59;14.68;;;3.80;;
58083;SDS011;43882;51.550;11.858;2023-01-28T01:17:28;12.60;;;3.15;;
58083;SDS011;43882;51.550;11.858;2023-01-28T01:19:55;15.50;;;3.10;;
58083;SDS011;43882;51.550;11.858;2023-01-28T01:22:21;13.30;;;3.10;;
58083;SDS011;43882;51.550;11.858;2023-01-28T01:24:48;14.20;;;3.17;;
58083;SDS011;43882;51.550;11.858;2023-01-28T01:27:14;14.60;;;3.30;;
58083;SDS011;43882;51.550;11.858;2023-01-28T01:29:40;13.20;;;3.20;;
58083;SDS011;43882;51.550;11.858;2023-01-28T01:32:06;11.88;;;2.88;;
58083;SDS011;43882;51.550;11.858;2023-01-28T01:34:32;17.10;;;3.15;;
58083;SDS011;43882;51.550;11.858;2023-01-28T01:36:58;14.20;;;3.17;;
58083;SDS011;43882;51.550;11.858;2023-01-28T01:39:24;10.95;;;2.90;;
58083;SDS011;43882;51.550;11.858;2023-01-28T01:41:50;13.38;;;3.13;;
58083;SDS011;43882;51.550;11.858;2023-01-28T01:47:17;14.68;;;3.55;;
58083;SDS011;43882;51.550;11.858;2023-01-28T01:49:43;11.15;;;2.95;;
58083;SDS011;43882;51.550;11.858;2023-01-28T01:52:11;13.43;;;3.13;;
58083;SDS011;43882;51.550;11.858;2023-01-28T01:54:39;13.90;;;3.20;;
58083;SDS011;43882;51.550;11.858;2023-01-28T01:57:09;13.65;;;2.85;;
58083;SDS011;43882;51.550;11.858;2023-01-28T01:59:38;11.50;;;3.00;;
58083;SDS011;43882;51.550;11.858;2023-01-28T02:02:05;10.40;;;2.75;;
58083;SDS011;43882;51.550;11.858;2023-01-28T02:04:39;13.48;;;2.70;;
58083;SDS011;43882;51.550;11.858;2023-01-28T02:07:08;12.10;;;2.90;;
58083;SDS011;43882;51.550;11.858;2023-01-28T02:09:36;11.43;;;2.85;;
58083;SDS011;43882;51.550;11.858;2023-01-28T02:12:11;13.80;;;2.85;;
58083;SDS011;43882;51.550;11.858;2023-01-28T02:14:41;10.90;;;2.70;;
58083;SDS011;43882;51.550;11.858;2023-01-28T02:17:17;11.20;;;2.92;;
58083;SDS011;43882;51.550;11.858;2023-01-28T02:22:39;12.52;;;3.10;;
58083;SDS011;43882;51.550;11.858;2023-01-28T02:28:26;13.15;;;2.90;;
58083;SDS011;43882;51.550;11.858;2023-01-28T02:30:59;13.90;;;2.95;;
58083;SDS011;43882;51.550;11.858;2023-01-28T02:33:58;10.60;;;2.80;;
58083;SDS011;43882;51.550;11.858;2023-01-28T02:36:35;14.07;;;3.10;;
58083;SDS011;43882;51.550;11.858;2023-01-28T02:39:27;14.25;;;3.10;;
58083;SDS011;43882;51.550;11.858;2023-01-28T02:41:58;16.85;;;3.45;;
58083;SDS011;43882;51.550;11.858;2023-01-28T02:44:28;13.13;;;3.10;;
58083;SDS011;43882;51.550;11.858;2023-01-28T02:46:54;15.02;;;3.25;;
58083;SDS011;43882;51.550;11.858;2023-01-28T02:49:47;14.57;;;3.20;;
58083;SDS011;43882;51.550;11.858;2023-01-28T02:52:30;13.20;;;2.80;;
58083;SDS011;43882;51.550;11.858;2023-01-28T02:56:05;12.00;;;3.03;;
58083;SDS011;43882;51.550;11.858;2023-01-28T03:01:13;11.35;;;2.65;;
58083;SDS011;43882;51.550;11.858;2023-01-28T03:04:15;14.05;;;3.17;;
58083;SDS011;43882;51.550;11.858;2023-01-28T03:06:36;14.32;;;3.45;;
58083;SDS011;43882;51.550;11.858;2023-01-28T03:09:05;11.85;;;2.92;;
58083;SDS011;43882;51.550;11.858;2023-01-28T03:11:55;16.42;;;3.53;;
58083;SDS011;43882;51.550;11.858;2023-01-28T03:14:50;12.98;;;2.53;;
58083;SDS011;43882;51.550;11.858;2023-01-28T03:17:46;12.68;;;3.20;;
58083;SDS011;43882;51.550;11.858;2023-01-28T03:21:19;15.45;;;3.35;;
58083;SDS011;43882;51.550;11.858;2023-01-28T03:23:46;13.98;;;3.22;;
58083;SDS011;43882;51.550;11.858;2023-01-28T03:26:37;13.07;;;3.22;;
58083;SDS011;43882;51.550;11.858;2023-01-28T03:29:26;14.20;;;3.17;;
58083;SDS011;43882;51.550;11.858;2023-01-28T03:32:13;10.60;;;3.00;;
58083;SDS011;43882;51.550;11.858;2023-01-28T03:34:57;9.32;;;2.85;;
58083;SDS011;43882;51.550;11.858;2023-01-28T03:37:42;12.60;;;3.08;;
58083;SDS011;43882;51.550;11.858;2023-01-28T03:40:08;13.80;;;3.38;;
58083;SDS011;43882;51.550;11.858;2023-01-28T03:42:35;10.63;;;2.95;;
58083;SDS011;43882;51.550;11.858;2023-01-28T03:45:01;12.90;;;3.30;;
58083;SDS011;43882;51.550;11.858;2023-01-28T03:47:29;12.73;;;3.28;;
58083;SDS011;43882;51.550;11.858;2023-01-28T03:49:56;16.35;;;3.45;;
58083;SDS011;43882;51.550;11.858;2023-01-28T03:52:29;11.82;;;2.90;;
58083;SDS011;43882;51.550;11.858;2023-01-28T03:54:56;13.07;;;3.03;;
58083;SDS011;43882;51.550;11.858;2023-01-28T03:57:23;11.65;;;3.05;;
58083;SDS011;43882;51.550;11.858;2023-01-28T03:59:50;13.98;;;3.45;;
58083;SDS011;43882;51.550;11.858;2023-01-28T04:02:17;13.55;;;3.25;;
58083;SDS011;43882;51.550;11.858;2023-01-28T04:04:45;13.55;;;3.20;;
58083;SDS011;43882;51.550;11.858;2023-01-28T04:07:11;14.05;;;3.40;;
58083;SDS011;43882;51.550;11.858;2023-01-28T04:09:40;11.65;;;2.92;;
58083;SDS011;43882;51.550;11.858;2023-01-28T04:12:07;14.98;;;3.20;;
58083;SDS011;43882;51.550;11.858;2023-01-28T04:14:34;13.48;;;3.15;;
58083;SDS011;43882;51.550;11.858;2023-01-28T04:17:00;12.68;;;2.70;;
58083;SDS011;43882;51.550;11.858;2023-01-28T04:19:27;15.15;;;3.55;;
58083;SDS011;43882;51.550;11.858;2023-01-28T04:22:02;11.20;;;3.53;;
58083;SDS011;43882;51.550;11.858;2023-01-28T04:24:32;11.63;;;2.92;;
58083;SDS011;43882;51.550;11.858;2023-01-28T04:26:58;11.45;;;2.80;;
58083;SDS011;43882;51.550;11.858;2023-01-28T04:29:24;13.45;;;2.88;;
58083;SDS011;43882;51.550;11.858;2023-01-28T04:31:50;13.77;;;3.20;;
58083;SDS011;43882;51.550;11.858;2023-01-28T04:34:17;10.93;;;2.95;;
58083;SDS011;43882;51.550;11.858;2023-01-28T04:36:44;12.45;;;3.20;;
58083;SDS011;43882;51.550;11.858;2023-01-28T04:39:10;15.00;;;3.20;;
58083;SDS011;43882;51.550;11.858;2023-01-28T04:41:36;12.13;;;3.20;;
58083;SDS011;43882;51.550;11.858;2023-01-28T04:44:02;14.73;;;3.45;;
58083;SDS011;43882;51.550;11.858;2023-01-28T04:46:28;14.80;;;3.30;;
58083;SDS011;43882;51.550;11.858;2023-01-28T04:48:54;14.18;;;3.33;;
58083;SDS011;43882;51.550;11.858;2023-01-28T04:51:20;14.05;;;3.25;;
58083;SDS011;43882;51.550;11.858;2023-01-28T04:53:46;11.20;;;2.90;;
58083;SDS011;43882;51.550;11.858;2023-01-28T04:56:12;11.15;;;2.90;;
58083;SDS011;43882;51.550;11.858;2023-01-28T04:58:38;13.45;;;3.15;;
58083;SDS011;43882;51.550;11.858;2023-01-28T05:01:05;12.38;;;3.10;;
58083;SDS011;43882;51.550;11.858;2023-01-28T05:03:31;13.27;;;3.05;;
58083;SDS011;43882;51.550;11.858;2023-01-28T05:05:58;11.00;;;3.20;;
58083;SDS011;43882;51.550;11.858;2023-01-28T05:08:24;10.18;;;2.75;;
58083;SDS011;43882;51.550;11.858;2023-01-28T05:10:50;10.77;;;2.72;;
58083;SDS011;43882;51.550;11.858;2023-01-28T05:13:16;15.35;;;3.60;;
58083;SDS011;43882;51.550;11.858;2023-01-28T05:15:42;12.77;;;3.33;;
58083;SDS011;43882;51.550;11.858;2023-01-28T05:18:08;10.25;;;2.80;;
58083;SDS011;43882;51.550;11.858;2023-01-28T05:20:34;13.75;;;3.00;;
58083;SDS011;43882;51.550;11.858;2023-01-28T05:23:00;12.25;;;3.03;;
58083;SDS011;43882;51.550;11.858;2023-01-28T05:25:26;11.50;;;3.00;;
58083;SDS011;43882;51.550;11.858;2023-01-28T05:27:52;13.63;;;3.15;;
58083;SDS011;43882;51.550;11.858;2023-01-28T05:30:19;10.80;;;3.55;;
58083;SDS011;43882;51.550;11.858;2023-01-28T05:32:45;14.52;;;3.10;;
58083;SDS011;43882;51.550;11.858;2023-01-28T05:35:11;14.65;;;3.25;;
58083;SDS011;43882;51.550;11.858;2023-01-28T05:37:37;10.57;;;2.88;;
58083;SDS011;43882;51.550;11.858;2023-01-28T05:40:04;12.25;;;3.15;;
58083;SDS011;43882;51.550;11.858;2023-01-28T05:42:30;13.52;;;3.30;;
58083;SDS011;43882;51.550;11.858;2023-01-28T05:44:56;16.42;;;3.30;;
58083;SDS011;43882;51.550;11.858;2023-01-28T05:47:22;12.63;;;2.90;;
58083;SDS011;43882;51.550;11.858;2023-01-28T05:49:48;12.93;;;3.33;;
58083;SDS011;43882;51.550;11.858;2023-01-28T05:52:14;12.82;;;3.25;;
58083;SDS011;43882;51.550;11.858;2023-01-28T05:54:40;12.43;;;3.30;;
58083;SDS011;43882;51.550;11.858;2023-01-28T05:57:07;12.35;;;2.83;;
58083;SDS011;43882;51.550;11.858;2023-01-28T05:59:33;13.65;;;3.40;;
58083;SDS011;43882;51.550;11.858;2023-01-28T06:01:59;13.80;;;3.33;;
58083;SDS011;43882;51.550;11.858;2023-01-28T06:04:25;13.80;;;3.00;;
58083;SDS011;43882;51.550;11.858;2023-01-28T06:06:51;10.30;;;2.67;;
58083;SDS011;43882;51.550;11.858;2023-01-28T06:09:17;14.23;;;3.60;;
58083;SDS011;43882;51.550;11.858;2023-01-28T06:11:43;11.80;;;3.13;;
58083;SDS011;43882;51.550;11.858;2023-01-28T06:14:10;12.57;;;3.08;;
58083;SDS011;43882;51.550;11.858;2023-01-28T06:16:36;11.80;;;3.10;;
58083;SDS011;43882;51.550;11.858;2023-01-28T06:19:02;11.82;;;3.33;;
58083;SDS011;43882;51.550;11.858;2023-01-28T06:21:28;13.63;;;3.25;;
58083;SDS011;43882;51.550;11.858;2023-01-28T06:23:54;12.30;;;3.30;;
58083;SDS011;43882;51.550;11.858;2023-01-28T06:26:20;15.05;;;3.42;;
58083;SDS011;43882;51.550;11.858;2023-01-28T06:28:46;15.52;;;3.33;;
58083;SDS011;43882;51.550;11.858;2023-01-28T06:31:12;10.93;;;3.22;;
58083;SDS011;43882;51.550;11.858;2023-01-28T06:33:39;12.80;;;3.38;;
58083;SDS011;43882;51.550;11.858;2023-01-28T06:36:05;14.82;;;3.45;;
58083;SDS011;43882;51.550;11.858;2023-01-28T06:38:31;12.52;;;3.25;;
58083;SDS011;43882;51.550;11.858;2023-01-28T06:40:59;13.43;;;3.08;;
58083;SDS011;43882;51.550;11.858;2023-01-28T06:43:25;12.82;;;3.00;;
58083;SDS011;43882;51.550;11.858;2023-01-28T06:45:54;14.75;;;3.75;;
58083;SDS011;43882;51.550;11.858;2023-01-28T06:48:21;12.27;;;3.30;;
58083;SDS011;43882;51.550;11.858;2023-01-28T06:50:48;15.02;;;4.15;;
58083;SDS011;43882;51.550;11.858;2023-01-28T06:53:14;16.70;;;3.50;;
58083;SDS011;43882;51.550;11.858;2023-01-28T06:55:40;12.45;;;3.35;;
58083;SDS011;43882;51.550;11.858;2023-01-28T06:58:07;12.93;;;3.45;;
58083;SDS011;43882;51.550;11.858;2023-01-28T07:00:33;12.82;;;3.30;;
58083;SDS011;43882;51.550;11.858;2023-01-28T07:02:59;14.88;;;3.50;;
58083;SDS011;43882;51.550;11.858;2023-01-28T07:05:25;11.43;;;2.95;;
58083;SDS011;43882;51.550;11.858;2023-01-28T07:07:51;13.38;;;3.53;;
58083;SDS011;43882;51.550;11.858;2023-01-28T07:10:17;13.82;;;3.40;;
58083;SDS011;43882;51.550;11.858;2023-01-28T07:12:43;16.83;;;3.75;;
58083;SDS011;43882;51.550;11.858;2023-01-28T07:15:10;14.45;;;3.90;;
58083;SDS011;43882;51.550;11.858;2023-01-28T07:17:39;13.52;;;3.25;;
58083;SDS011;43882;51.550;11.858;2023-01-28T07:20:06;13.77;;;3.35;;
58083;SDS011;43882;51.550;11.858;2023-01-28T07:22:33;15.07;;;3.92;;
58083;SDS011;43882;51.550;11.858;2023-01-28T07:24:59;12.68;;;3.53;;
58083;SDS011;43882;51.550;11.858;2023-01-28T07:27:26;14.40;;;3.63;;
58083;SDS011;43882;51.550;11.858;2023-01-28T07:29:52;14.60;;;3.97;;
58083;SDS011;43882;51.550;11.858;2023-01-28T07:32:18;17.30;;;4.40;;
58083;SDS011;43882;51.550;11.858;2023-01-28T07:34:44;16.77;;;4.75;;
58083;SDS011;43882;51.550;11.858;2023-01-28T07:37:10;16.75;;;4.03;;
58083;SDS011;43882;51.550;11.858;2023-01-28T07:39:36;12.73;;;3.55;;
58083;SDS011;43882;51.550;11.858;2023-01-28T07:42:02;16.40;;;4.20;;
58083;SDS011;43882;51.550;11.858;2023-01-28T07:44:28;11.85;;;3.50;;
58083;SDS011;43882;51.550;11.858;2023-01-28T07:46:54;15.00;;;3.92;;
58083;SDS011;43882;51.550;11.858;2023-01-28T07:49:20;13.73;;;3.83;;
58083;SDS011;43882;51.550;11.858;2023-01-28T07:51:47;14.68;;;3.88;;
58083;SDS011;43882;51.550;11.858;2023-01-28T07:54:15;12.80;;;3.85;;
58083;SDS011;43882;51.550;11.858;2023-01-28T07:56:41;13.52;;;3.60;;
58083;SDS011;43882;51.550;11.858;2023-01-28T07:59:07;14.10;;;4.22;;
58083;SDS011;43882;51.550;11.858;2023-01-28T08:01:33;11.45;;;3.30;;
58083;SDS011;43882;51.550;11.858;2023-01-28T08:03:59;14.48;;;4.00;;
58083;SDS011;43882;51.550;11.858;2023-01-28T08:06:27;12.52;;;3.60;;
58083;SDS011;43882;51.550;11.858;2023-01-28T08:08:53;14.98;;;3.90;;
58083;SDS011;43882;51.550;11.858;2023-01-28T08:11:19;14.40;;;3.50;;
58083;SDS011;43882;51.550;11.858;2023-01-28T08:13:45;14.93;;;4.15;;
58083;SDS011;43882;51.550;11.858;2023-01-28T08:16:13;13.18;;;3.60;;
58083;SDS011;43882;51.550;11.858;2023-01-28T08:18:39;14.23;;;3.63;;
58083;SDS011;43882;51.550;11.858;2023-01-28T08:21:05;13.98;;;3.60;;
58083;SDS011;43882;51.550;11.858;2023-01-28T08:23:31;14.38;;;4.00;;
58083;SDS011;43882;51.550;11.858;2023-01-28T08:26:00;16.15;;;4.10;;
58083;SDS011;43882;51.550;11.858;2023-01-28T08:28:26;12.93;;;3.90;;
58083;SDS011;43882;51.550;11.858;2023-01-28T08:30:52;17.60;;;4.20;;
58083;SDS011;43882;51.550;11.858;2023-01-28T08:33:19;13.90;;;4.00;;
58083;SDS011;43882;51.550;11.858;2023-01-28T08:35:45;14.70;;;3.85;;
58083;SDS011;43882;51.550;11.858;2023-01-28T08:38:12;14.25;;;3.90;;
58083;SDS011;43882;51.550;11.858;2023-01-28T08:40:39;15.18;;;4.03;;
58083;SDS011;43882;51.550;11.858;2023-01-28T08:43:05;14.07;;;3.70;;
58083;SDS011;43882;51.550;11.858;2023-01-28T08:45:31;14.18;;;4.35;;
58083;SDS011;43882;51.550;11.858;2023-01-28T08:47:58;13.82;;;3.85;;
58083;SDS011;43882;51.550;11.858;2023-01-28T08:50:26;14.38;;;4.30;;
58083;SDS011;43882;51.550;11.858;2023-01-28T08:53:01;13.70;;;4.38;;
58083;SDS011;43882;51.550;11.858;2023-01-28T08:55:28;17.40;;;4.97;;
58083;SDS011;43882;51.550;11.858;2023-01-28T08:57:57;16.23;;;4.13;;
58083;SDS011;43882;51.550;11.858;2023-01-28T09:00:27;16.33;;;4.80;;
58083;SDS011;43882;51.550;11.858;2023-01-28T09:02:53;16.58;;;4.60;;
58083;SDS011;43882;51.550;11.858;2023-01-28T09:05:20;14.88;;;4.20;;
58083;SDS011;43882;51.550;11.858;2023-01-28T09:07:46;17.13;;;4.32;;
58083;SDS011;43882;51.550;11.858;2023-01-28T09:10:12;17.23;;;4.50;;
58083;SDS011;43882;51.550;11.858;2023-01-28T09:12:40;17.70;;;4.93;;
58083;SDS011;43882;51.550;11.858;2023-01-28T09:15:06;16.80;;;4.88;;
58083;SDS011;43882;51.550;11.858;2023-01-28T09:17:33;17.05;;;4.57;;
58083;SDS011;43882;51.550;11.858;2023-01-28T09:19:59;16.40;;;4.80;;
58083;SDS011;43882;51.550;11.858;2023-01-28T09:22:25;16.48;;;4.80;;
58083;SDS011;43882;51.550;11.858;2023-01-28T09:24:51;13.63;;;3.90;;
58083;SDS011;43882;51.550;11.858;2023-01-28T09:27:17;17.17;;;4.82;;
58083;SDS011;43882;51.550;11.858;2023-01-28T09:29:44;14.23;;;4.20;;
58083;SDS011;43882;51.550;11.858;2023-01-28T09:32:10;16.27;;;4.93;;
58083;SDS011;43882;51.550;11.858;2023-01-28T09:34:36;16.10;;;4.55;;
58083;SDS011;43882;51.550;11.858;2023-01-28T09:37:02;16.48;;;4.75;;
58083;SDS011;43882;51.550;11.858;2023-01-28T09:39:28;15.38;;;4.35;;
58083;SDS011;43882;51.550;11.858;2023-01-28T09:47:10;15.45;;;4.40;;
58083;SDS011;43882;51.550;11.858;2023-01-28T09:49:44;15.55;;;3.92;;
58083;SDS011;43882;51.550;11.858;2023-01-28T09:52:14;13.77;;;4.05;;
58083;SDS011;43882;51.550;11.858;2023-01-28T09:54:44;15.13;;;4.57;;
58083;SDS011;43882;51.550;11.858;2023-01-28T09:57:21;14.40;;;4.10;;
58083;SDS011;43882;51.550;11.858;2023-01-28T09:59:49;14.57;;;4.22;;
58083;SDS011;43882;51.550;11.858;2023-01-28T10:02:23;16.67;;;4.60;;
58083;SDS011;43882;51.550;11.858;2023-01-28T10:11:19;15.23;;;4.13;;
58083;SDS011;43882;51.550;11.858;2023-01-28T10:13:39;16.38;;;4.63;;
58083;SDS011;43882;51.550;11.858;2023-01-28T10:18:49;16.17;;;4.80;;
58083;SDS011;43882;51.550;11.858;2023-01-28T10:21:35;15.05;;;4.80;;
58083;SDS011;43882;51.550;11.858;2023-01-28T10:26:58;14.20;;;4.20;;
58083;SDS011;43882;51.550;11.858;2023-01-28T10:29:31;16.52;;;5.25;;
58083;SDS011;43882;51.550;11.858;2023-01-28T10:32:04;16.58;;;4.47;;
58083;SDS011;43882;51.550;11.858;2023-01-28T10:34:40;16.98;;;5.05;;
58083;SDS011;43882;51.550;11.858;2023-01-28T10:37:07;14.73;;;4.50;;
58083;SDS011;43882;51.550;11.858;2023-01-28T10:39:34;16.38;;;4.47;;
58083;SDS011;43882;51.550;11.858;2023-01-28T10:42:00;16.02;;;4.85;;
58083;SDS011;43882;51.550;11.858;2023-01-28T10:44:31;14.02;;;4.03;;
58083;SDS011;43882;51.550;11.858;2023-01-28T10:47:01;17.98;;;4.90;;
58083;SDS011;43882;51.550;11.858;2023-01-28T10:49:32;20.05;;;7.43;;
58083;SDS011;43882;51.550;11.858;2023-01-28T10:52:10;51.15;;;19.67;;
58083;SDS011;43882;51.550;11.858;2023-01-28T10:54:37;22.95;;;9.32;;
58083;SDS011;43882;51.550;11.858;2023-01-28T10:57:04;18.63;;;6.40;;
58083;SDS011;43882;51.550;11.858;2023-01-28T10:59:34;19.25;;;5.88;;
58083;SDS011;43882;51.550;11.858;2023-01-28T11:02:23;17.80;;;5.90;;
58083;SDS011;43882;51.550;11.858;2023-01-28T11:05:04;14.35;;;4.00;;
58083;SDS011;43882;51.550;11.858;2023-01-28T11:07:45;16.63;;;4.35;;
58083;SDS011;43882;51.550;11.858;2023-01-28T11:10:21;16.02;;;4.70;;
58083;SDS011;43882;51.550;11.858;2023-01-28T11:12:57;16.88;;;4.80;;
58083;SDS011;43882;51.550;11.858;2023-01-28T11:15:24;16.05;;;4.57;;
58083;SDS011;43882;51.550;11.858;2023-01-28T11:17:55;17.77;;;5.20;;
58083;SDS011;43882;51.550;11.858;2023-01-28T11:20:23;18.27;;;4.95;;
58083;SDS011;43882;51.550;11.858;2023-01-28T11:22:51;16.27;;;4.63;;
58083;SDS011;43882;51.550;11.858;2023-01-28T11:25:18;16.17;;;4.30;;
58083;SDS011;43882;51.550;11.858;2023-01-28T11:27:52;16.70;;;5.15;;
58083;SDS011;43882;51.550;11.858;2023-01-28T11:30:52;17.25;;;5.03;;
58083;SDS011;43882;51.550;11.858;2023-01-28T11:33:18;18.55;;;4.60;;
58083;SDS011;43882;51.550;11.858;2023-01-28T11:35:57;16.80;;;4.40;;
58083;SDS011;43882;51.550;11.858;2023-01-28T11:38:46;15.05;;;4.53;;
58083;SDS011;43882;51.550;11.858;2023-01-28T11:41:12;17.33;;;4.55;;
58083;SDS011;43882;51.550;11.858;2023-01-28T11:43:39;15.27;;;4.45;;
58083;SDS011;43882;51.550;11.858;2023-01-28T11:51:34;15.82;;;4.45;;
58083;SDS011;43882;51.550;11.858;2023-01-28T11:56:44;15.48;;;3.97;;
58083;SDS011;43882;51.550;11.858;2023-01-28T12:07:43;19.98;;;4.88;;
58083;SDS011;43882;51.550;11.858;2023-01-28T12:15:56;16.38;;;5.22;;
58083;SDS011;43882;51.550;11.858;2023-01-28T12:24:16;18.45;;;4.70;;
58083;SDS011;43882;51.550;11.858;2023-01-28T12:32:45;18.58;;;5.20;;
58083;SDS011;43882;51.550;11.858;2023-01-28T12:35:23;17.00;;;4.80;;
58083;SDS011;43882;51.550;11.858;2023-01-28T12:40:57;14.68;;;4.70;;
58083;SDS011;43882;51.550;11.858;2023-01-28T12:46:25;17.15;;;4.97;;
58083;SDS011;43882;51.550;11.858;2023-01-28T12:51:29;16.48;;;5.47;;
58083;SDS011;43882;51.550;11.858;2023-01-28T12:54:11;17.95;;;5.22;;
58083;SDS011;43882;51.550;11.858;2023-01-28T12:56:50;16.42;;;4.82;;
58083;SDS011;43882;51.550;11.858;2023-01-28T12:59:32;17.15;;;4.72;;
58083;SDS011;43882;51.550;11.858;2023-01-28T13:02:25;16.17;;;5.00;;
58083;SDS011;43882;51.550;11.858;2023-01-28T13:04:59;16.13;;;4.43;;
58083;SDS011;43882;51.550;11.858;2023-01-28T13:07:32;14.35;;;3.67;;
58083;SDS011;43882;51.550;11.858;2023-01-28T13:10:16;13.02;;;3.58;;
58083;SDS011;43882;51.550;11.858;2023-01-28T13:12:49;12.10;;;3.30;;
58083;SDS011;43882;51.550;11.858;2023-01-28T13:15:16;11.48;;;3.03;;
58083;SDS011;43882;51.550;11.858;2023-01-28T13:18:45;9.55;;;2.70;;
58083;SDS011;43882;51.550;11.858;2023-01-28T13:20:57;11.05;;;2.83;;
58083;SDS011;43882;51.550;11.858;2023-01-28T13:26:56;9.15;;;2.70;;
58083;SDS011;43882;51.550;11.858;2023-01-28T13:31:39;9.05;;;2.45;;
58083;SDS011;43882;51.550;11.858;2023-01-28T13:34:07;12.63;;;3.13;;
58083;SDS011;43882;51.550;11.858;2023-01-28T13:36:53;11.25;;;2.90;;
58083;SDS011;43882;51.550;11.858;2023-01-28T13:39:21;11.02;;;2.92;;
58083;SDS011;43882;51.550;11.858;2023-01-28T13:41:55;8.25;;;2.63;;
58083;SDS011;43882;51.550;11.858;2023-01-28T13:44:35;9.85;;;2.55;;
58083;SDS011;43882;51.550;11.858;2023-01-28T13:49:49;7.85;;;2.28;;
58083;SDS011;43882;51.550;11.858;2023-01-28T13:52:29;13.15;;;2.70;;
58083;SDS011;43882;51.550;11.858;2023-01-28T13:54:59;5.70;;;2.40;;
58083;SDS011;43882;51.550;11.858;2023-01-28T14:20:15;10.88;;;3.15;;
58083;SDS011;43882;51.550;11.858;2023-01-28T14:23:03;7.90;;;2.70;;
58083;SDS011;43882;51.550;11.858;2023-01-28T14:25:36;9.68;;;2.63;;
58083;SDS011;43882;51.550;11.858;2023-01-28T14:28:15;8.30;;;2.30;;
58083;SDS011;43882;51.550;11.858;2023-01-28T14:30:59;12.77;;;3.75;;
58083;SDS011;43882;51.550;11.858;2023-01-28T14:33:30;10.93;;;3.22;;
58083;SDS011;43882;51.550;11.858;2023-01-28T14:35:57;11.45;;;3.25;;
58083;SDS011;43882;51.550;11.858;2023-01-28T14:38:23;12.18;;;3.60;;
58083;SDS011;43882;51.550;11.858;2023-01-28T14:40:50;12.60;;;3.10;;
58083;SDS011;43882;51.550;11.858;2023-01-28T14:43:19;11.07;;;2.90;;
58083;SDS011;43882;51.550;11.858;2023-01-28T14:48:45;10.25;;;2.85;;
58083;SDS011;43882;51.550;11.858;2023-01-28T14:59:53;8.82;;;2.40;;
58083;SDS011;43882;51.550;11.858;2023-01-28T15:02:23;9.13;;;2.70;;
58083;SDS011;43882;51.550;11.858;2023-01-28T15:04:50;10.70;;;2.70;;
58083;SDS011;43882;51.550;11.858;2023-01-28T15:10:04;9.50;;;2.40;;
58083;SDS011;43882;51.550;11.858;2023-01-28T15:12:33;10.90;;;2.97;;
58083;SDS011;43882;51.550;11.858;2023-01-28T15:17:36;13.57;;;3.88;;
58083;SDS011;43882;51.550;11.858;2023-01-28T15:20:02;12.63;;;3.80;;
58083;SDS011;43882;51.550;11.858;2023-01-28T15:22:34;13.20;;;3.80;;
58083;SDS011;43882;51.550;11.858;2023-01-28T15:25:00;11.45;;;3.60;;
58083;SDS011;43882;51.550;11.858;2023-01-28T15:27:27;13.57;;;4.35;;
58083;SDS011;43882;51.550;11.858;2023-01-28T15:29:55;15.50;;;5.10;;
58083;SDS011;43882;51.550;11.858;2023-01-28T15:32:26;15.90;;;5.22;;
58083;SDS011;43882;51.550;11.858;2023-01-28T15:34:54;14.45;;;4.57;;
58083;SDS011;43882;51.550;11.858;2023-01-28T15:37:20;15.95;;;4.72;;
58083;SDS011;43882;51.550;11.858;2023-01-28T15:39:47;13.27;;;3.78;;
58083;SDS011;43882;51.550;11.858;2023-01-28T15:42:18;13.57;;;4.18;;
58083;SDS011;43882;51.550;11.858;2023-01-28T15:44:46;14.07;;;4.05;;
58083;SDS011;43882;51.550;11.858;2023-01-28T15:47:26;15.57;;;4.70;;
58083;SDS011;43882;51.550;11.858;2023-01-28T15:52:29;14.52;;;4.70;;
58083;SDS011;43882;51.550;11.858;2023-01-28T15:54:58;12.60;;;4.10;;
58083;SDS011;43882;51.550;11.858;2023-01-28T15:57:25;13.32;;;3.70;;
58083;SDS011;43882;51.550;11.858;2023-01-28T16:00:13;13.30;;;4.10;;
58083;SDS011;43882;51.550;11.858;2023-01-28T16:02:49;13.73;;;4.60;;
58083;SDS011;43882;51.550;11.858;2023-01-28T16:05:30;13.93;;;4.30;;
58083;SDS011;43882;51.550;11.858;2023-01-28T16:08:07;16.20;;;4.93;;
58083;SDS011;43882;51.550;11.858;2023-01-28T16:10:50;16.20;;;5.85;;
58083;SDS011;43882;51.550;11.858;2023-01-28T16:13:21;15.73;;;5.75;;
58083;SDS011;43882;51.550;11.858;2023-01-28T16:15:52;15.30;;;5.68;;
58083;SDS011;43882;51.550;11.858;2023-01-28T16:18:28;17.95;;;7.40;;
58083;SDS011;43882;51.550;11.858;2023-01-28T16:21:05;18.17;;;7.15;;
58083;SDS011;43882;51.550;11.858;2023-01-28T16:23:31;17.05;;;6.55;;
58083;SDS011;43882;51.550;11.858;2023-01-28T16:25:59;17.33;;;6.40;;
58083;SDS011;43882;51.550;11.858;2023-01-28T16:28:26;18.63;;;6.93;;
58083;SDS011;43882;51.550;11.858;2023-01-28T16:30:53;17.52;;;5.88;;
58083;SDS011;43882;51.550;11.858;2023-01-28T16:33:20;16.58;;;5.95;;
58083;SDS011;43882;51.550;11.858;2023-01-28T16:35:46;17.20;;;6.40;;
58083;SDS011;43882;51.550;11.858;2023-01-28T16:38:13;17.42;;;6.40;;
58083;SDS011;43882;51.550;11.858;2023-01-28T16:40:42;20.35;;;8.32;;